Time;durP1;ratioP1;P1;durP2;ratioP2;P2;SDS_P1;SDS_P2;PMS_P1;PMS_P2;Temp;Humidity;BMP_temperature;BMP_pressure;BME280_temperature;BME280_humidity;BME280_pressure;Samples;Min_cycle;Max_cycle;Signal;HPM_P1;HPM_P2
2021/10/26 00:00:45;;;;;;;36.20;19.98;;;;;;;11.34;91.09;101700.47;5054676;28;20476;-73
2021/10/26 00:03:11;;;;;;;31.52;20.10;;;;;;;11.39;91.36;101698.16;5054692;28;20020;-73
2021/10/26 00:05:36;;;;;;;35.72;20.02;;;;;;;11.22;91.85;101671.56;5054486;28;20450;-73
2021/10/26 00:08:01;;;;;;;33.05;19.45;;;;;;;11.36;91.52;101703.66;5054563;28;20032;-73
2021/10/26 00:10:27;;;;;;;37.53;19.95;;;;;;;11.43;91.50;101702.03;5036653;28;20048;-73
2021/10/26 00:12:52;;;;;;;35.95;19.95;;;;;;;11.40;91.16;101694.59;5036647;28;20029;-74
2021/10/26 00:15:19;;;;;;;35.88;19.35;;;;;;;11.44;90.82;101700.25;5036543;28;20082;-73
2021/10/26 00:17:44;;;;;;;33.72;19.67;;;;;;;11.40;90.80;101702.38;5054139;28;20029;-73
2021/10/26 00:20:10;;;;;;;35.38;19.38;;;;;;;11.41;91.11;101700.59;5054392;28;20037;-72
2021/10/26 00:22:35;;;;;;;32.25;19.33;;;;;;;11.41;91.27;101706.56;5054242;28;20415;-73
2021/10/26 00:25:02;;;;;;;37.58;19.77;;;;;;;11.39;91.40;101712.88;5054221;28;20017;-73
2021/10/26 00:27:28;;;;;;;36.90;19.98;;;;;;;11.46;91.10;101714.63;5054141;28;20070;-73
2021/10/26 00:29:53;;;;;;;34.75;19.92;;;;;;;11.29;91.30;101690.63;5036283;28;20403;-74
2021/10/26 00:32:19;;;;;;;34.15;18.85;;;;;;;11.50;90.84;101705.53;5036194;28;20029;-73
2021/10/26 00:34:44;;;;;;;38.10;19.95;;;;;;;11.48;90.81;101722.25;5053995;28;20029;-73
2021/10/26 00:37:11;;;;;;;39.65;19.48;;;;;;;11.46;91.19;101726.78;5036117;28;20406;-74
2021/10/26 00:39:36;;;;;;;33.05;19.88;;;;;;;11.44;91.31;101728.72;5053766;28;20036;-73
2021/10/26 00:42:04;;;;;;;34.35;19.58;;;;;;;11.45;91.50;101735.50;5053796;28;20100;-73
2021/10/26 00:44:33;;;;;;;40.80;20.10;;;;;;;11.31;91.38;101716.34;5036055;28;20032;-73
2021/10/26 00:46:58;;;;;;;40.88;19.58;;;;;;;11.41;91.41;101735.03;5036846;28;20031;-72
2021/10/26 00:49:24;;;;;;;36.72;19.42;;;;;;;11.50;91.39;101738.38;5035907;28;20025;-75
2021/10/26 00:51:51;;;;;;;36.22;19.65;;;;;;;11.50;91.37;101743.56;5035930;28;20059;-73
2021/10/26 00:54:17;;;;;;;34.83;18.88;;;;;;;11.56;91.37;101742.09;5035846;28;20025;-72
2021/10/26 00:56:43;;;;;;;39.80;19.00;;;;;;;11.54;91.44;101737.09;5053654;28;20028;-73
2021/10/26 00:59:09;;;;;;;45.67;19.52;;;;;;;11.51;91.15;101740.03;5053659;28;20577;-73
2021/10/26 01:01:35;;;;;;;38.20;20.55;;;;;;;11.50;91.41;101730.63;5035690;28;20021;-72
2021/10/26 01:04:01;;;;;;;40.20;20.60;;;;;;;11.52;91.72;101734.66;5053579;28;20020;-73
2021/10/26 01:06:26;;;;;;;43.80;20.48;;;;;;;11.52;91.35;101733.84;5035667;28;20467;-73
2021/10/26 01:08:51;;;;;;;39.45;20.67;;;;;;;11.50;91.48;101726.25;5053772;28;20029;-74
2021/10/26 01:11:17;;;;;;;42.42;20.27;;;;;;;11.48;91.83;101730.00;5053425;28;20021;-72
2021/10/26 01:13:44;;;;;;;43.22;20.17;;;;;;;11.45;92.17;101730.31;5053556;28;20025;-73
2021/10/26 01:16:09;;;;;;;41.70;20.98;;;;;;;11.44;92.39;101732.09;5035578;28;20423;-74
2021/10/26 01:18:34;;;;;;;39.53;21.38;;;;;;;11.48;92.24;101737.78;5053352;28;20029;-74
2021/10/26 01:20:59;;;;;;;41.28;21.92;;;;;;;11.42;92.68;101736.66;5035293;28;20106;-73
2021/10/26 01:23:26;;;;;;;38.38;20.52;;;;;;;11.51;92.27;101745.19;5053381;28;20445;-74
2021/10/26 01:25:52;;;;;;;40.80;20.77;;;;;;;11.53;92.10;101745.81;5053324;28;20103;-73
2021/10/26 01:28:17;;;;;;;37.67;19.58;;;;;;;11.47;92.01;101739.53;5036786;28;20477;-74
2021/10/26 01:30:43;;;;;;;41.78;20.27;;;;;;;11.41;92.49;101731.66;5057477;28;20059;-74
2021/10/26 01:33:09;;;;;;;39.00;19.90;;;;;;;11.43;91.97;101725.31;5039542;28;20025;-74
2021/10/26 01:35:36;;;;;;;47.42;20.98;;;;;;;11.44;91.71;101732.09;5057887;28;20033;-73
2021/10/26 01:38:03;;;;;;;37.22;19.73;;;;;;;11.39;92.50;101723.22;5057349;28;20029;-73
2021/10/26 01:40:29;;;;;;;40.53;20.65;;;;;;;11.39;92.02;101731.00;5057306;28;20024;-72
2021/10/26 01:42:54;;;;;;;40.03;19.38;;;;;;;11.43;91.94;101724.53;5057244;28;20151;-72
2021/10/26 01:45:20;;;;;;;48.00;21.17;;;;;;;11.41;92.45;101721.28;5039309;28;20025;-72
2021/10/26 01:47:45;;;;;;;43.78;20.63;;;;;;;11.37;92.65;101723.41;5039301;28;20433;-72
2021/10/26 01:50:14;;;;;;;38.90;20.35;;;;;;;11.41;92.75;101723.88;5057134;28;20028;-73
2021/10/26 01:52:40;;;;;;;44.80;20.85;;;;;;;11.41;92.73;101714.31;5039107;28;20027;-72
2021/10/26 01:55:07;;;;;;;42.47;21.40;;;;;;;11.41;93.12;101731.66;5056915;28;20083;-73
2021/10/26 01:57:33;;;;;;;38.33;21.27;;;;;;;11.31;92.79;101716.34;5039120;28;20028;-73
2021/10/26 01:59:59;;;;;;;41.00;21.40;;;;;;;11.26;93.43;101734.94;5039039;28;20435;-74
2021/10/26 02:02:25;;;;;;;43.30;20.75;;;;;;;11.34;92.88;101734.09;5057168;28;20021;-73
2021/10/26 02:04:51;;;;;;;40.95;21.27;;;;;;;11.35;92.73;101737.50;5057095;28;20017;-73
2021/10/26 02:07:17;;;;;;;43.47;21.17;;;;;;;11.33;92.68;101736.84;5056961;28;20421;-73
2021/10/26 02:09:43;;;;;;;42.72;21.63;;;;;;;11.34;93.24;101733.31;5057054;28;20029;-73
2021/10/26 02:12:09;;;;;;;42.70;21.95;;;;;;;11.25;93.16;101727.34;5056869;28;20538;-73
2021/10/26 02:14:34;;;;;;;45.20;21.55;;;;;;;11.18;93.15;101713.47;5056574;28;20029;-73
2021/10/26 02:17:02;;;;;;;46.20;22.35;;;;;;;11.27;93.18;101738.31;5056654;28;20360;-72
2021/10/26 02:19:27;;;;;;;35.30;20.08;;;;;;;11.25;93.16;101730.75;5056269;28;20086;-72
2021/10/26 02:21:53;;;;;;;41.67;20.77;;;;;;;11.21;93.07;101736.41;5056543;28;20028;-72
2021/10/26 02:24:18;;;;;;;47.50;22.27;;;;;;;11.24;92.99;101741.25;5039168;28;20059;-73
2021/10/26 02:26:44;;;;;;;40.95;20.63;;;;;;;11.23;92.64;101727.50;5056433;28;20490;-72
2021/10/26 02:29:10;;;;;;;39.97;21.45;;;;;;;11.13;93.43;101745.00;5038433;28;20029;-73
2021/10/26 02:31:35;;;;;;;42.50;20.95;;;;;;;11.15;93.68;101743.06;5038481;28;20062;-72
2021/10/26 02:34:00;;;;;;;46.90;21.35;;;;;;;11.05;93.76;101750.22;5056461;28;20028;-73
2021/10/26 02:36:26;;;;;;;42.40;21.48;;;;;;;11.04;93.67;101748.59;5038952;28;20063;-73
2021/10/26 02:38:51;;;;;;;40.08;19.92;;;;;;;10.99;93.85;101748.28;5038369;28;20053;-73
2021/10/26 02:41:17;;;;;;;48.92;19.95;;;;;;;11.04;93.53;101746.81;5055193;28;20025;-73
2021/10/26 02:43:42;;;;;;;41.88;18.98;;;;;;;11.03;93.50;101754.75;5038135;28;20074;-73
2021/10/26 02:46:08;;;;;;;43.80;20.05;;;;;;;10.99;93.36;101756.88;5038394;28;20029;-73
2021/10/26 02:48:34;;;;;;;40.15;20.15;;;;;;;10.93;93.33;101765.25;5056014;28;20025;-73
2021/10/26 02:50:59;;;;;;;34.83;18.70;;;;;;;10.94;93.43;101766.09;5038139;28;20033;-73
2021/10/26 02:53:25;;;;;;;34.65;18.27;;;;;;;10.93;93.34;101764.47;5037975;28;20020;-73
2021/10/26 02:55:51;;;;;;;32.80;18.27;;;;;;;10.92;92.83;101768.03;5055903;28;20029;-73
2021/10/26 02:58:17;;;;;;;37.03;18.05;;;;;;;10.85;93.24;101780.81;5055809;28;20523;-73
2021/10/26 03:00:43;;;;;;;33.03;17.95;;;;;;;10.78;93.74;101775.47;5055788;28;20028;-72
2021/10/26 03:03:08;;;;;;;37.13;17.73;;;;;;;10.76;93.31;101771.44;5055807;28;20486;-72
2021/10/26 03:05:34;;;;;;;39.13;17.40;;;;;;;10.75;93.27;101775.00;5037926;28;20017;-73
2021/10/26 03:07:59;;;;;;;33.95;16.88;;;;;;;10.76;93.48;101771.44;5055654;28;20096;-73
2021/10/26 03:10:24;;;;;;;31.45;17.25;;;;;;;10.69;93.65;101768.69;5055660;28;20028;-73
2021/10/26 03:12:49;;;;;;;38.55;17.02;;;;;;;10.67;93.48;101768.06;5055595;28;20056;-72
2021/10/26 03:15:15;;;;;;;34.13;17.40;;;;;;;10.61;93.19;101766.91;5055623;28;20477;-73
2021/10/26 03:17:40;;;;;;;37.45;17.52;;;;;;;10.57;93.55;101768.22;5056206;28;20025;-73
2021/10/26 03:20:06;;;;;;;35.53;18.20;;;;;;;10.71;93.39;101765.97;5020718;28;20053;-73
2021/10/26 03:22:32;;;;;;;33.55;17.00;;;;;;;10.72;93.42;101764.97;5055390;28;20111;-73
2021/10/26 03:24:57;;;;;;;28.23;17.40;;;;;;;10.74;93.56;101771.59;5055379;28;20104;-72
2021/10/26 03:27:24;;;;;;;38.10;18.55;;;;;;;10.68;93.64;101767.09;5055345;28;20378;-72
2021/10/26 03:29:49;;;;;;;36.22;18.95;;;;;;;10.73;93.40;101762.25;5055765;28;20025;-73
2021/10/26 03:32:14;;;;;;;40.97;20.02;;;;;;;10.78;93.20;101761.75;5055446;28;20082;-73
2021/10/26 03:34:40;;;;;;;35.63;19.30;;;;;;;10.80;93.38;101759.81;5055139;28;20086;-73
2021/10/26 03:37:06;;;;;;;41.90;20.15;;;;;;;10.78;93.54;101759.97;5055101;28;20033;-72
2021/10/26 03:39:32;;;;;;;42.90;20.48;;;;;;;10.73;93.64;101757.06;5055080;28;20052;-73
2021/10/26 03:41:58;;;;;;;45.08;21.35;;;;;;;10.67;93.86;101757.72;5054964;28;20020;-72
2021/10/26 03:44:23;;;;;;;42.15;21.00;;;;;;;10.61;94.25;101758.38;5054924;28;20036;-73
2021/10/26 03:46:49;;;;;;;43.20;20.60;;;;;;;10.65;94.27;101753.69;5036987;28;20025;-72
2021/10/26 03:49:14;;;;;;;47.03;21.42;;;;;;;10.67;93.92;101756.91;5037051;28;20017;-73
2021/10/26 03:51:39;;;;;;;43.88;21.80;;;;;;;10.71;93.94;101764.19;5036928;28;20025;-73
2021/10/26 03:54:05;;;;;;;47.83;20.73;;;;;;;10.74;93.92;101771.59;5055004;28;20032;-73
2021/10/26 03:56:30;;;;;;;44.95;21.10;;;;;;;10.73;93.63;101775.19;5055309;28;20029;-73
2021/10/26 03:58:56;;;;;;;49.20;21.83;;;;;;;10.73;93.29;101770.00;5054965;28;20482;-72
2021/10/26 04:01:22;;;;;;;48.67;21.75;;;;;;;10.72;93.42;101775.31;5054658;28;20468;-72
2021/10/26 04:03:47;;;;;;;49.88;22.02;;;;;;;10.60;93.57;101775.66;5054669;28;20071;-73
2021/10/26 04:06:15;;;;;;;43.70;21.25;;;;;;;10.53;93.81;101771.28;5054478;28;20513;-73
2021/10/26 04:11:27;;;;;;;49.55;22.00;;;;;;;10.58;93.75;101789.72;5054808;28;20186;-73
2021/10/26 04:13:53;;;;;;;45.83;23.45;;;;;;;10.57;94.33;101790.69;5054867;28;20040;-73
2021/10/26 04:16:19;;;;;;;52.05;22.15;;;;;;;10.62;94.11;101785.84;5054355;28;20463;-73
2021/10/26 04:18:46;;;;;;;51.97;22.13;;;;;;;10.64;93.59;101785.66;5054310;28;20035;-73
2021/10/26 04:21:12;;;;;;;53.83;22.83;;;;;;;10.59;93.80;101784.38;5054086;28;20052;-73
2021/10/26 04:23:37;;;;;;;51.05;22.20;;;;;;;10.58;93.62;101784.53;5036650;28;20483;-73
2021/10/26 04:26:03;;;;;;;44.67;22.05;;;;;;;10.59;93.97;101792.16;5036419;28;20017;-72
2021/10/26 04:28:29;;;;;;;43.90;22.35;;;;;;;10.65;93.38;101798.44;5054626;28;20036;-72
2021/10/26 04:30:55;;;;;;;53.45;22.33;;;;;;;10.55;93.58;101796.00;5054071;28;20467;-72
2021/10/26 04:33:21;;;;;;;45.03;21.50;;;;;;;10.56;93.38;101779.53;5054011;28;20444;-73
2021/10/26 04:35:47;;;;;;;41.25;21.15;;;;;;;10.55;93.50;101787.44;5054340;28;20028;-72
2021/10/26 04:38:12;;;;;;;47.00;21.38;;;;;;;10.47;93.83;101775.34;5054004;28;20022;-73
2021/10/26 04:40:38;;;;;;;43.88;21.05;;;;;;;10.36;93.92;101775.66;5053880;28;20021;-74
2021/10/26 04:43:04;;;;;;;42.53;21.08;;;;;;;10.47;93.77;101793.44;5053724;28;20056;-73
2021/10/26 04:45:29;;;;;;;49.67;20.48;;;;;;;10.44;93.73;101793.75;5054194;28;20025;-73
2021/10/26 04:47:55;;;;;;;43.88;21.40;;;;;;;10.36;94.08;101807.47;5035980;28;20029;-73
2021/10/26 04:50:21;;;;;;;45.70;22.08;;;;;;;10.37;93.80;101803.91;5053754;28;20025;-74
2021/10/26 04:52:46;;;;;;;48.78;21.48;;;;;;;10.34;94.06;101812.00;5035867;28;20383;-73
2021/10/26 04:55:12;;;;;;;45.50;21.70;;;;;;;10.31;93.45;101801.97;5035759;28;20025;-72
2021/10/26 04:57:38;;;;;;;59.42;22.10;;;;;;;10.28;93.76;101810.06;5035785;28;20021;-72
2021/10/26 05:00:05;;;;;;;44.80;21.27;;;;;;;10.24;93.96;101820.81;5053617;28;20024;-73
2021/10/26 05:02:30;;;;;;;47.08;21.45;;;;;;;10.21;94.06;101821.13;5035250;28;20063;-73
2021/10/26 05:04:55;;;;;;;48.25;20.35;;;;;;;10.40;93.68;101818.28;5035681;28;20052;-73
2021/10/26 05:07:21;;;;;;;42.15;20.67;;;;;;;10.16;93.82;101811.31;5035710;28;20029;-73
2021/10/26 05:09:47;;;;;;;44.95;20.40;;;;;;;10.15;94.40;101814.84;5053821;28;20024;-73
2021/10/26 05:12:12;;;;;;;45.72;20.00;;;;;;;10.17;94.26;101808.53;5053515;28;20383;-72
2021/10/26 05:14:37;;;;;;;46.08;20.15;;;;;;;10.11;93.82;101811.75;5035440;28;20467;-72
2021/10/26 05:17:04;;;;;;;45.05;19.13;;;;;;;10.14;93.88;101815.81;5053365;28;20070;-73
2021/10/26 05:19:31;;;;;;;44.47;21.08;;;;;;;10.23;93.86;101827.75;5035321;28;20114;-71
2021/10/26 05:21:56;;;;;;;41.55;19.73;;;;;;;10.15;93.78;101825.16;5053399;28;20090;-72
2021/10/26 05:24:24;;;;;;;47.13;20.08;;;;;;;10.02;94.02;101835.97;5053899;28;20017;-73
2021/10/26 05:26:50;;;;;;;55.80;21.67;;;;;;;10.09;94.22;101831.75;5053345;28;20490;-73
2021/10/26 05:29:16;;;;;;;45.28;20.27;;;;;;;10.10;94.06;101846.31;5053377;28;20364;-73
2021/10/26 05:31:41;;;;;;;43.78;20.92;;;;;;;10.15;93.75;101843.25;5053247;28;20078;-73
2021/10/26 05:34:09;;;;;;;43.17;21.30;;;;;;;10.13;94.12;101846.00;5053175;28;20079;-73
2021/10/26 05:36:34;;;;;;;44.00;20.45;;;;;;;10.23;93.88;101852.78;5035439;28;20032;-73
2021/10/26 05:39:00;;;;;;;43.17;21.67;;;;;;;10.14;93.65;101857.94;5035363;28;20025;-74
2021/10/26 05:41:27;;;;;;;48.65;21.10;;;;;;;10.14;94.03;101857.94;5035376;28;20390;-73
2021/10/26 05:43:52;;;;;;;55.85;20.88;;;;;;;9.98;94.72;101846.75;5036520;28;20173;-73
2021/10/26 05:46:18;;;;;;;46.30;21.13;;;;;;;10.15;94.83;101856.16;5053029;28;20025;-74
2021/10/26 05:48:43;;;;;;;43.65;22.17;;;;;;;10.29;94.27;101867.69;5053231;28;20028;-74
2021/10/26 05:51:09;;;;;;;42.45;21.95;;;;;;;10.34;93.52;101866.25;5052997;28;20045;-74
2021/10/26 05:53:35;;;;;;;57.53;21.38;;;;;;;10.18;94.63;101863.59;5035644;28;20027;-73
2021/10/26 05:56:00;;;;;;;46.85;21.17;;;;;;;10.30;94.05;101872.72;5035060;28;20032;-74
2021/10/26 05:58:26;;;;;;;49.58;21.27;;;;;;;10.30;93.53;101870.13;5053578;28;20025;-72
2021/10/26 06:00:52;;;;;;;48.35;20.77;;;;;;;10.27;93.79;101865.28;5053086;28;20053;-73
2021/10/26 06:03:17;;;;;;;47.28;21.67;;;;;;;10.22;94.56;101864.91;5053129;28;20055;-75
2021/10/26 06:05:43;;;;;;;44.88;20.60;;;;;;;10.29;94.13;101873.66;5052914;28;20036;-73
2021/10/26 06:08:08;;;;;;;44.67;20.40;;;;;;;10.45;94.15;101866.94;5052977;28;20025;-74
2021/10/26 06:10:40;;;;;;;49.15;20.85;;;;;;;10.43;93.51;101874.03;5035310;28;20025;-74
2021/10/26 06:13:10;;;;;;;41.17;19.15;;;;;;;10.49;93.31;101865.63;5053148;28;20109;-74
2021/10/26 06:15:36;;;;;;;37.35;19.45;;;;;;;10.43;93.19;101871.44;5054251;28;20372;-73
2021/10/26 06:18:02;;;;;;;41.22;20.70;;;;;;;10.38;93.73;101872.72;5039996;28;20107;-73
2021/10/26 06:20:27;;;;;;;47.35;20.65;;;;;;;10.37;94.22;101868.53;5038839;28;20045;-73
2021/10/26 06:22:52;;;;;;;44.75;20.52;;;;;;;10.31;93.79;101870.94;5038656;28;20479;-74
2021/10/26 06:25:18;;;;;;;40.75;20.33;;;;;;;10.42;93.80;101880.16;5056477;28;20021;-74
2021/10/26 06:27:43;;;;;;;41.33;20.15;;;;;;;10.57;92.84;101879.38;5038584;28;20029;-74
2021/10/26 06:30:09;;;;;;;56.67;19.80;;;;;;;10.65;91.93;101882.94;5056326;28;20021;-74
2021/10/26 06:32:34;;;;;;;41.03;20.05;;;;;;;10.68;92.22;101880.03;5038276;28;20102;-73
2021/10/26 06:35:00;;;;;;;36.05;18.40;;;;;;;10.60;91.83;101886.00;5056118;28;20021;-71
2021/10/26 06:37:26;;;;;;;40.97;18.15;;;;;;;10.58;92.08;101883.56;5056259;28;20040;-73
2021/10/26 06:39:54;;;;;;;35.40;19.38;;;;;;;10.49;92.50;101892.28;5038180;28;20025;-73
2021/10/26 06:42:20;;;;;;;29.13;17.23;;;;;;;10.43;92.26;101894.69;5038135;28;20437;-72
2021/10/26 06:44:45;;;;;;;37.15;18.58;;;;;;;10.43;92.35;101894.69;5056337;28;20025;-73
2021/10/26 06:47:10;;;;;;;38.25;18.63;;;;;;;10.54;92.40;101897.78;5056609;28;20028;-72
2021/10/26 06:49:36;;;;;;;32.25;17.67;;;;;;;10.45;91.95;101893.56;5056008;28;20356;-72
2021/10/26 06:52:01;;;;;;;36.50;17.42;;;;;;;10.51;91.88;101900.69;5038024;28;20017;-73
2021/10/26 06:54:27;;;;;;;37.10;17.85;;;;;;;10.23;92.83;101899.28;5055780;28;20025;-73
2021/10/26 06:56:52;;;;;;;31.83;17.63;;;;;;;10.38;92.87;101910.66;5038060;28;20020;-73
2021/10/26 06:59:18;;;;;;;40.13;17.95;;;;;;;10.44;92.24;101914.38;5055898;28;20052;-73
2021/10/26 07:01:43;;;;;;;43.33;18.48;;;;;;;10.35;92.09;101914.38;5056496;28;20114;-73
2021/10/26 07:04:08;;;;;;;37.72;17.67;;;;;;;10.45;92.02;101927.16;5055995;28;20374;-73
2021/10/26 07:06:34;;;;;;;36.22;17.50;;;;;;;10.52;91.74;101917.81;5055812;28;20021;-73
2021/10/26 07:08:59;;;;;;;36.70;17.67;;;;;;;10.51;91.32;101921.38;5055729;28;20059;-74
2021/10/26 07:11:24;;;;;;;39.08;18.08;;;;;;;10.55;91.52;101914.09;5055663;28;20032;-74
2021/10/26 07:13:50;;;;;;;35.15;17.70;;;;;;;10.35;91.99;101919.53;5037958;28;20025;-73
2021/10/26 07:16:15;;;;;;;36.05;18.33;;;;;;;10.16;92.00;101881.03;5059458;28;20029;-79
2021/10/26 07:18:40;;;;;;;36.97;17.00;;;;;;;10.28;92.22;101910.81;5059039;28;20056;-74
2021/10/26 07:21:06;;;;;;;31.48;16.70;;;;;;;10.22;92.13;101895.91;5059624;28;20091;-79
2021/10/26 07:23:31;;;;;;;30.42;17.90;;;;;;;10.59;91.20;101923.97;5041040;28;20470;-74
2021/10/26 07:25:57;;;;;;;37.25;16.52;;;;;;;10.66;90.91;101923.31;5037085;28;20017;-74
2021/10/26 07:31:44;;;;;;;34.00;16.33;;;;;;;10.78;89.93;101927.22;5057010;28;20036;-75
2021/10/26 07:34:12;;;;;;;30.40;15.75;;;;;;;10.95;89.47;101936.59;5037183;28;20025;-74
2021/10/26 07:36:43;;;;;;;26.38;14.77;;;;;;;11.14;88.43;101932.09;5056335;28;20104;-75
2021/10/26 07:39:29;;;;;;;26.65;13.77;;;;;;;11.83;85.49;101933.28;5037382;28;20020;-74
2021/10/26 07:41:58;;;;;;;25.70;13.82;;;;;;;12.91;81.39;101929.16;5054881;28;20039;-72
2021/10/26 07:44:23;;;;;;;25.05;12.07;;;;;;;13.34;80.04;101940.66;5054995;28;20017;-72
2021/10/26 07:46:49;;;;;;;20.73;10.15;;;;;;;14.19;76.52;101942.00;5036781;28;20017;-72
2021/10/26 07:49:14;;;;;;;19.27;10.80;;;;;;;14.43;73.92;101931.25;5037738;28;20030;-75
2021/10/26 07:51:39;;;;;;;16.40;10.20;;;;;;;15.06;72.03;101922.84;5055096;28;20460;-75
2021/10/26 07:54:05;;;;;;;19.98;10.27;;;;;;;15.59;70.04;101933.59;5054725;28;20033;-74
2021/10/26 07:56:30;;;;;;;19.20;9.73;;;;;;;16.40;66.95;101933.78;5054705;28;20021;-74
2021/10/26 07:58:56;;;;;;;18.10;8.95;;;;;;;16.32;66.79;101931.34;5054490;28;20061;-75
2021/10/26 08:01:22;;;;;;;18.13;9.10;;;;;;;15.87;68.00;101930.19;5054510;28;20057;-75
2021/10/26 08:03:47;;;;;;;21.38;9.10;;;;;;;17.09;64.51;101924.81;5054592;28;20195;-74
2021/10/26 08:06:12;;;;;;;20.33;8.73;;;;;;;16.89;64.35;101926.66;5054524;28;20048;-75
2021/10/26 08:08:38;;;;;;;14.15;7.75;;;;;;;15.52;69.43;101927.56;5036574;28;20430;-74
2021/10/26 08:11:03;;;;;;;18.17;8.13;;;;;;;14.10;75.61;101940.50;5054421;28;20021;-74
2021/10/26 08:13:28;;;;;;;20.67;8.57;;;;;;;13.88;76.34;101934.41;5054336;28;20020;-75
2021/10/26 08:15:54;;;;;;;15.30;8.38;;;;;;;13.54;77.77;101933.16;5054832;28;20029;-74
2021/10/26 08:18:20;;;;;;;16.27;8.70;;;;;;;13.10;79.38;101937.25;5054309;28;20455;-75
2021/10/26 08:20:48;;;;;;;20.55;8.98;;;;;;;12.98;80.25;101938.66;5054045;28;20049;-74
2021/10/26 08:23:14;;;;;;;18.98;8.43;;;;;;;12.72;81.11;101928.66;5054077;28;20079;-72
2021/10/26 08:25:41;;;;;;;17.45;8.52;;;;;;;13.03;80.73;101936.34;5054368;28;20021;-74
2021/10/26 08:28:12;;;;;;;21.33;8.57;;;;;;;12.71;81.50;101932.19;5053939;28;20021;-74
2021/10/26 08:30:49;;;;;;;19.85;9.90;;;;;;;12.47;82.60;101935.75;5054076;28;20106;-74
2021/10/26 08:33:25;;;;;;;19.23;9.25;;;;;;;12.30;83.13;101936.84;5054810;28;20032;-73
2021/10/26 08:35:51;;;;;;;22.95;10.00;;;;;;;12.28;83.42;101923.22;5036237;28;20049;-73
2021/10/26 08:38:17;;;;;;;21.85;9.80;;;;;;;12.29;84.65;101932.63;5053555;28;20384;-74
2021/10/26 08:40:47;;;;;;;23.60;10.02;;;;;;;12.24;84.63;101927.94;5053864;28;20028;-75
2021/10/26 08:43:21;;;;;;;19.65;9.75;;;;;;;12.16;84.86;101941.75;5036347;28;20029;-73
2021/10/26 08:45:51;;;;;;;22.30;9.38;;;;;;;12.18;84.72;101929.44;5053892;28;20009;-74
2021/10/26 08:48:21;;;;;;;22.33;9.75;;;;;;;12.23;83.94;101933.28;5036574;28;20124;-74
2021/10/26 08:50:55;;;;;;;23.42;9.80;;;;;;;12.10;84.99;101931.25;5054067;28;20021;-74
2021/10/26 08:53:21;;;;;;;24.73;9.80;;;;;;;12.01;85.27;101932.28;5036595;28;20031;-74
2021/10/26 08:55:56;;;;;;;24.05;10.05;;;;;;;12.17;85.78;101934.81;5055628;28;20025;-75
2021/10/26 08:58:24;;;;;;;22.83;9.57;;;;;;;12.40;84.08;101937.44;5054805;28;20387;-74
2021/10/26 09:00:50;;;;;;;17.92;9.50;;;;;;;12.67;83.10;101935.31;5038121;28;20032;-74
2021/10/26 09:03:17;;;;;;;25.25;9.70;;;;;;;12.52;83.85;101932.66;5037599;28;20036;-74
2021/10/26 09:05:47;;;;;;;18.83;9.13;;;;;;;12.59;83.44;101934.38;5054171;28;20053;-73
2021/10/26 09:08:13;;;;;;;20.33;9.13;;;;;;;12.50;83.23;101922.47;5056397;28;20047;-78
2021/10/26 09:10:40;;;;;;;24.45;8.90;;;;;;;12.47;83.70;101909.03;5057485;28;20032;-79
2021/10/26 09:19:20;;;;;;;20.50;8.23;;;;;;;12.91;81.76;101931.75;5054956;28;20043;-73
2021/10/26 09:21:56;;;;;;;18.58;8.27;;;;;;;12.99;81.67;101926.50;5054152;28;20055;-74
2021/10/26 09:24:22;;;;;;;21.65;8.35;;;;;;;12.98;81.76;101923.09;5054070;28;20017;-74
2021/10/26 09:26:51;;;;;;;15.65;7.85;;;;;;;12.97;81.55;101907.69;5054120;28;20364;-73
2021/10/26 09:29:22;;;;;;;22.63;8.90;;;;;;;12.95;82.28;101926.03;5035911;28;20021;-75
2021/10/26 09:31:47;;;;;;;25.23;8.30;;;;;;;12.79;82.88;101931.34;5053915;28;20020;-74
2021/10/26 09:34:16;;;;;;;16.25;7.93;;;;;;;12.95;81.78;101920.84;5035710;28;20103;-74
2021/10/26 09:36:44;;;;;;;16.83;8.07;;;;;;;12.92;81.63;101926.38;5035811;28;20021;-75
2021/10/26 09:39:13;;;;;;;22.05;8.63;;;;;;;12.81;82.25;101926.78;5019610;28;20032;-75
2021/10/26 09:41:56;;;;;;;23.58;8.93;;;;;;;12.77;83.47;101922.91;5035751;28;20128;-75
2021/10/26 09:44:31;;;;;;;20.25;8.20;;;;;;;13.12;81.66;101936.25;5054970;28;20068;-73
2021/10/26 09:47:09;;;;;;;19.55;9.13;;;;;;;13.15;81.60;101933.31;5054734;28;20029;-74
2021/10/26 09:53:14;;;;;;;25.58;10.25;;;;;;;13.00;82.35;101941.88;5058129;28;20121;-74
2021/10/26 09:55:46;;;;;;;20.73;10.85;;;;;;;12.98;82.42;101938.66;5058180;28;20021;-73
2021/10/26 09:58:15;;;;;;;22.92;11.35;;;;;;;12.82;82.43;101938.78;5058333;28;20108;-72
2021/10/26 10:00:45;;;;;;;25.33;11.50;;;;;;;13.08;81.71;101939.22;5039579;28;20031;-73
2021/10/26 10:03:13;;;;;;;21.38;11.60;;;;;;;13.06;81.96;101930.81;5057799;28;20032;-73
2021/10/26 10:06:03;;;;;;;25.92;13.10;;;;;;;12.98;82.27;101933.47;5040712;28;20104;-74
2021/10/26 10:08:30;;;;;;;22.85;12.55;;;;;;;12.88;82.26;101927.69;5039633;28;20365;-74
2021/10/26 10:11:11;;;;;;;33.22;12.95;;;;;;;12.77;82.70;101931.50;5056618;28;20498;-73
2021/10/26 10:13:55;;;;;;;26.77;12.95;;;;;;;13.01;82.31;101932.31;5038703;28;20035;-75
2021/10/26 10:16:27;;;;;;;31.60;12.95;;;;;;;12.99;82.12;101937.66;5039247;28;20029;-73
2021/10/26 10:18:53;;;;;;;25.10;13.43;;;;;;;12.74;82.55;101941.41;5056696;28;20032;-73
2021/10/26 10:21:24;;;;;;;29.15;14.02;;;;;;;12.72;83.60;101939.03;5056421;28;20047;-74
2021/10/26 10:23:51;;;;;;;28.55;15.80;;;;;;;12.77;83.13;101922.91;5040394;28;20031;-79
2021/10/26 10:26:18;;;;;;;26.98;15.05;;;;;;;12.59;83.28;101915.44;5060248;28;20021;-77
2021/10/26 10:32:06;;;;;;;29.02;16.60;;;;;;;12.74;83.41;101950.00;5057232;28;20075;-73
2021/10/26 10:34:32;;;;;;;32.42;17.08;;;;;;;12.69;83.70;101946.31;5056377;28;20564;-74
2021/10/26 10:37:00;;;;;;;29.48;16.02;;;;;;;12.78;83.75;101943.50;5038493;28;20025;-73
2021/10/26 10:39:33;;;;;;;31.13;17.08;;;;;;;12.48;85.13;101947.75;5022313;28;20245;-73
2021/10/26 10:42:31;;;;;;;28.08;16.98;;;;;;;12.36;85.69;101944.72;5057252;28;20514;-74
2021/10/26 10:44:59;;;;;;;28.15;17.70;;;;;;;12.35;86.42;101952.69;5045088;28;20037;-73
2021/10/26 10:47:40;;;;;;;27.58;17.23;;;;;;;12.36;87.16;101944.72;5056865;28;20047;-73
2021/10/26 10:50:23;;;;;;;27.90;17.10;;;;;;;12.37;86.78;101943.75;5038880;28;20052;-74
2021/10/26 10:53:20;;;;;;;26.20;16.60;;;;;;;12.47;87.21;101945.31;5038449;28;20025;-73
2021/10/26 10:55:49;;;;;;;27.45;15.68;;;;;;;12.37;87.51;101941.16;5056185;28;20021;-74
2021/10/26 10:58:29;;;;;;;30.80;15.50;;;;;;;12.41;86.86;101926.06;5059149;28;20510;-74
2021/10/26 11:01:23;;;;;;;23.20;14.43;;;;;;;12.91;85.88;101918.78;5058393;28;20032;-76
2021/10/26 11:03:49;;;;;;;20.67;13.00;;;;;;;13.42;83.33;101939.78;5040800;28;20021;-73
2021/10/26 11:06:42;;;;;;;21.17;12.60;;;;;;;13.07;85.59;101931.63;5038492;28;20052;-73
2021/10/26 11:09:29;;;;;;;20.38;12.57;;;;;;;12.72;86.61;101926.06;5056879;28;20463;-74
2021/10/26 11:15:40;;;;;;;21.20;13.40;;;;;;;12.64;86.77;101928.69;5055766;28;20047;-73
2021/10/26 11:18:05;;;;;;;26.52;13.38;;;;;;;12.57;86.70;101928.59;5055756;28;20033;-74
2021/10/26 11:20:30;;;;;;;23.10;13.93;;;;;;;12.68;86.66;101935.13;5055906;28;20095;-74
2021/10/26 11:23:03;;;;;;;26.83;15.07;;;;;;;12.55;87.28;101934.91;5056617;28;20069;-74
2021/10/26 11:25:28;;;;;;;26.58;15.65;;;;;;;12.75;86.58;101920.50;5038396;28;20279;-73
2021/10/26 11:27:55;;;;;;;25.05;15.82;;;;;;;12.65;86.50;101918.13;5038257;28;20116;-73
2021/10/26 11:30:36;;;;;;;26.60;16.17;;;;;;;12.68;87.16;101926.56;5037455;28;20053;-72
2021/10/26 11:33:14;;;;;;;28.98;18.02;;;;;;;12.84;86.00;101927.25;5037354;28;20039;-73